Terminal Aerodrome Forecast
Issued by NWS

Home | Current Version | Previous Version | Text Only | Print | Product List | Glossary Off
Versions: 1 2 3 4 5 6 7 8 9 10 11 12 13 14 15 16 17 18

087
FTUS43 KBIS 131731 AAC
TAFMOT
TAF AMD
KMOT 131731Z 1318/1412 15016KT P6SM OVC018
     FM132200 15014KT 3SM -SN OVC010
     FM140000 14011KT 1SM -SN OVC010
     FM140800 25008KT 2SM -SN OVC010
     FM140900 25008KT P6SM VCSH OVC010=

USA.gov is the U.S. government's official web portal to all federal, state and local government web resources and services.